Time;durP1;ratioP1;P1;durP2;ratioP2;P2;SDS_P1;SDS_P2;PMS_P1;PMS_P2;Temp;Humidity;BMP_temperature;BMP_pressure;BME280_temperature;BME280_humidity;BME280_pressure;Samples;Min_cycle;Max_cycle;Signal;HPM_P1;HPM_P2
2022/04/27 00:01:16;;;;;;;14.45;7.57;;;;;;;11.05;100.00;100790.41;5014365;28;20046;-64
2022/04/27 00:03:44;;;;;;;9.80;6.10;;;;;;;11.00;100.00;100795.94;5014465;28;20077;-64
2022/04/27 00:06:12;;;;;;;8.52;6.25;;;;;;;11.10;100.00;100800.56;5014233;28;20054;-64
2022/04/27 00:08:40;;;;;;;10.02;6.93;;;;;;;11.34;100.00;100798.00;5014303;28;20046;-64
2022/04/27 00:11:08;;;;;;;11.15;7.13;;;;;;;11.17;100.00;100795.59;5014259;28;20054;-64
2022/04/27 00:13:36;;;;;;;9.20;6.18;;;;;;;10.95;100.00;100788.53;5012875;28;20049;-63
2022/04/27 00:16:05;;;;;;;9.70;5.95;;;;;;;10.89;100.00;100786.91;5013671;28;20056;-64
2022/04/27 00:18:33;;;;;;;10.77;6.78;;;;;;;10.82;100.00;100789.09;5013977;28;20046;-64
2022/04/27 00:21:01;;;;;;;11.00;6.82;;;;;;;10.74;100.00;100795.94;5014123;28;20061;-64
2022/04/27 00:23:32;;;;;;;10.45;6.60;;;;;;;10.62;100.00;100783.38;5012638;28;20072;-64
2022/04/27 00:26:00;;;;;;;10.68;6.80;;;;;;;10.62;100.00;100790.78;5013873;28;20151;-64
2022/04/27 00:28:28;;;;;;;9.23;6.40;;;;;;;10.57;100.00;100788.84;5013390;28;20068;-64
2022/04/27 00:30:56;;;;;;;11.63;6.93;;;;;;;10.52;100.00;100788.88;5013444;28;20048;-64
2022/04/27 00:33:24;;;;;;;10.88;6.50;;;;;;;10.51;100.00;100789.94;5013688;28;20042;-64
2022/04/27 00:35:52;;;;;;;10.40;7.07;;;;;;;10.45;100.00;100785.56;5012387;28;20416;-63
2022/04/27 00:38:20;;;;;;;14.73;6.95;;;;;;;10.41;100.00;100782.53;5013790;28;20046;-64
2022/04/27 00:40:48;;;;;;;10.13;6.60;;;;;;;10.41;100.00;100781.72;5028409;28;20065;-64
2022/04/27 00:43:34;;;;;;;9.77;6.15;;;;;;;10.38;100.00;100783.09;5013436;28;20062;-63
2022/04/27 00:46:02;;;;;;;13.88;7.30;;;;;;;10.35;100.00;100787.19;5011880;28;20046;-64
2022/04/27 00:48:31;;;;;;;11.50;6.40;;;;;;;10.35;100.00;100797.31;5013563;28;20409;-63
2022/04/27 00:51:01;;;;;;;10.07;6.90;;;;;;;10.31;100.00;100797.03;5011805;28;20049;-64
2022/04/27 00:53:30;;;;;;;9.85;6.72;;;;;;;10.27;100.00;100801.41;5013034;28;20056;-64
2022/04/27 00:55:59;;;;;;;10.68;6.45;;;;;;;10.27;100.00;100800.59;5013193;28;20058;-64
2022/04/27 00:58:28;;;;;;;10.25;6.25;;;;;;;10.23;100.00;100800.31;5013114;28;20054;-64
2022/04/27 01:01:16;;;;;;;12.55;6.75;;;;;;;10.18;100.00;100803.84;5012909;28;20061;-64
2022/04/27 01:03:44;;;;;;;10.05;6.45;;;;;;;10.14;100.00;100801.94;5011751;28;20096;-64
2022/04/27 01:06:13;;;;;;;11.75;6.82;;;;;;;10.11;100.00;100806.03;5013247;28;20064;-64
2022/04/27 01:08:41;;;;;;;11.38;6.80;;;;;;;10.05;100.00;100802.50;5011141;28;20500;-64
2022/04/27 01:11:56;;;;;;;8.68;5.93;;;;;;;9.98;100.00;100803.84;5013119;28;20045;-65
2022/04/27 01:14:24;;;;;;;8.73;5.23;;;;;;;9.94;100.00;100803.56;5027948;28;20121;-64
2022/04/27 01:16:54;;;;;;;12.20;7.10;;;;;;;9.93;100.00;100808.19;5027709;28;20289;-64
2022/04/27 01:19:24;;;;;;;10.60;6.07;;;;;;;9.92;100.00;100801.09;5011165;28;20053;-63
2022/04/27 01:21:54;;;;;;;9.13;6.10;;;;;;;9.91;100.00;100812.28;5012573;28;20057;-64
2022/04/27 01:24:26;;;;;;;12.50;6.82;;;;;;;9.96;100.00;100804.09;5012866;28;20061;-64
2022/04/27 01:26:55;;;;;;;12.00;7.72;;;;;;;9.97;100.00;100804.94;5010760;28;20042;-64
2022/04/27 01:29:23;;;;;;;12.10;7.55;;;;;;;9.92;100.00;100812.03;5012420;28;20400;-64
2022/04/27 01:31:53;;;;;;;9.43;6.82;;;;;;;9.91;100.00;100807.66;5012224;28;20053;-64
2022/04/27 01:34:21;;;;;;;11.52;6.88;;;;;;;9.97;100.00;100804.94;5012642;28;20054;-64
2022/04/27 01:36:51;;;;;;;8.95;6.72;;;;;;;9.86;100.00;100801.34;5027991;28;20045;-64
2022/04/27 01:39:22;;;;;;;10.50;6.45;;;;;;;9.77;100.00;100796.41;5010830;28;20041;-65
2022/04/27 01:41:50;;;;;;;15.20;7.90;;;;;;;9.85;100.00;100800.53;5027320;28;20049;-64
2022/04/27 01:44:18;;;;;;;10.90;6.70;;;;;;;9.90;100.00;100800.53;5012530;28;20088;-64
2022/04/27 01:46:46;;;;;;;10.88;6.65;;;;;;;9.78;100.00;100806.25;5012840;28;20397;-64
2022/04/27 01:49:14;;;;;;;12.60;6.80;;;;;;;9.70;100.00;100800.47;5010866;28;20385;-64
2022/04/27 01:54:29;;;;;;;10.48;6.75;;;;;;;9.80;100.00;100808.72;5027746;28;20488;-64
2022/04/27 01:56:57;;;;;;;9.23;6.40;;;;;;;9.70;100.00;100816.88;5012360;28;20042;-64
2022/04/27 01:59:25;;;;;;;9.32;6.05;;;;;;;9.61;100.00;100805.63;5012281;28;20046;-64
2022/04/27 02:01:54;;;;;;;8.40;6.35;;;;;;;9.53;100.00;100813.25;5027102;28;20054;-64
2022/04/27 02:04:22;;;;;;;7.90;5.63;;;;;;;9.44;100.00;100823.06;5012330;28;20049;-64
2022/04/27 02:06:50;;;;;;;9.25;6.25;;;;;;;9.53;100.00;100820.63;5012311;28;20049;-64
2022/04/27 02:09:18;;;;;;;11.63;5.72;;;;;;;9.43;100.00;100815.94;5011092;28;20045;-63
2022/04/27 02:11:48;;;;;;;10.90;6.40;;;;;;;9.43;100.00;100815.13;5023555;28;20062;-63
2022/04/27 02:14:16;;;;;;;9.57;6.43;;;;;;;9.45;100.00;100821.16;5002704;28;20488;-63
2022/04/27 02:16:44;;;;;;;11.45;6.88;;;;;;;9.46;100.00;100814.59;5010196;28;20046;-64
2022/04/27 02:19:15;;;;;;;8.38;5.57;;;;;;;9.40;100.00;100820.03;5026845;28;20049;-64
2022/04/27 02:21:45;;;;;;;11.07;6.03;;;;;;;9.38;100.00;100824.94;5027044;28;20370;-64
2022/04/27 02:24:16;;;;;;;9.88;6.45;;;;;;;9.42;100.00;100827.97;5027398;28;20045;-64
2022/04/27 02:26:44;;;;;;;9.02;5.82;;;;;;;9.39;100.00;100826.59;5026748;28;20046;-64
2022/04/27 02:29:12;;;;;;;9.13;5.80;;;;;;;9.42;100.00;100822.50;5027362;28;20041;-64
2022/04/27 02:31:40;;;;;;;9.95;6.63;;;;;;;9.63;100.00;100823.41;5010958;28;20041;-64
2022/04/27 02:34:09;;;;;;;9.93;6.68;;;;;;;9.74;100.00;100831.66;5010574;28;20413;-64
2022/04/27 02:36:39;;;;;;;12.13;6.85;;;;;;;9.68;100.00;100828.91;5026916;28;20046;-64
2022/04/27 02:39:07;;;;;;;9.55;6.60;;;;;;;9.51;100.00;100831.00;5026922;28;20053;-64
2022/04/27 02:41:35;;;;;;;10.68;6.85;;;;;;;9.37;100.00;100831.50;5029660;28;20050;-64
2022/04/27 02:44:03;;;;;;;9.25;6.13;;;;;;;9.27;100.00;100820.53;5014179;28;20054;-64
2022/04/27 02:46:31;;;;;;;11.43;6.70;;;;;;;9.19;100.00;100827.28;5014265;28;20060;-64
2022/04/27 02:51:51;;;;;;;13.75;7.43;;;;;;;9.50;100.00;100826.63;5030987;28;20053;-64
2022/04/27 02:54:38;;;;;;;8.18;5.68;;;;;;;9.34;100.00;100840.22;5015799;28;20050;-63
2022/04/27 02:57:06;;;;;;;9.57;6.78;;;;;;;9.31;100.00;100834.47;5014467;28;20050;-64
2022/04/27 02:59:34;;;;;;;11.00;7.03;;;;;;;9.18;100.00;100830.31;5013622;28;20053;-64
2022/04/27 03:02:02;;;;;;;10.63;5.72;;;;;;;9.03;100.00;100829.13;5030446;28;20057;-64
2022/04/27 03:04:31;;;;;;;10.02;5.75;;;;;;;9.02;100.00;100838.41;5013264;28;20049;-63
2022/04/27 03:07:00;;;;;;;9.93;5.57;;;;;;;8.89;100.00;100847.84;5030200;28;20038;-64
2022/04/27 03:09:29;;;;;;;6.57;5.00;;;;;;;8.87;100.00;100836.38;5013835;28;20053;-64
2022/04/27 03:11:57;;;;;;;8.43;5.28;;;;;;;8.87;100.00;100836.38;5013875;28;20050;-64
2022/04/27 03:14:34;;;;;;;8.27;5.40;;;;;;;8.82;100.00;100848.09;5013679;28;20049;-64
2022/04/27 03:17:05;;;;;;;9.02;5.80;;;;;;;8.82;100.00;100850.00;5002064;28;20050;-64
2022/04/27 03:19:33;;;;;;;10.75;5.85;;;;;;;8.93;100.00;100862.63;5030228;28;20130;-63
2022/04/27 03:22:01;;;;;;;11.70;5.88;;;;;;;9.04;100.00;100859.97;5029898;28;20500;-64
2022/04/27 03:24:29;;;;;;;8.13;6.25;;;;;;;9.11;100.00;100869.59;5029649;28;20065;-64
2022/04/27 03:27:08;;;;;;;6.35;4.30;;;;;;;8.98;100.00;100865.41;5029104;28;20070;-64
2022/04/27 03:29:36;;;;;;;8.50;5.30;;;;;;;8.85;100.00;100877.59;5030453;28;20460;-64
2022/04/27 03:32:05;;;;;;;6.32;4.35;;;;;;;8.93;100.00;100878.19;5013099;28;20053;-64
2022/04/27 03:34:32;;;;;;;5.10;4.50;;;;;;;8.89;100.00;100885.25;5013397;28;20057;-64
2022/04/27 03:37:01;;;;;;;5.07;4.15;;;;;;;8.90;100.00;100887.72;5013805;28;20053;-63
2022/04/27 03:39:30;;;;;;;5.97;4.30;;;;;;;8.90;100.00;100889.63;5029456;28;20041;-64
2022/04/27 03:42:14;;;;;;;4.25;3.50;;;;;;;8.67;100.00;100897.06;5013568;28;20050;-63
2022/04/27 03:44:46;;;;;;;6.60;3.90;;;;;;;8.50;100.00;100903.44;5006686;28;20054;-64
2022/04/27 03:47:14;;;;;;;6.07;4.30;;;;;;;8.44;100.00;100893.56;5014791;28;20346;-63
2022/04/27 03:49:42;;;;;;;6.47;4.25;;;;;;;8.38;100.00;100900.03;5014535;28;20042;-63
2022/04/27 03:52:10;;;;;;;6.45;4.78;;;;;;;8.33;100.00;100901.63;5013835;28;20049;-64
2022/04/27 03:54:38;;;;;;;7.55;4.43;;;;;;;8.34;100.00;100900.56;5029667;28;20054;-64
2022/04/27 03:57:06;;;;;;;5.15;4.05;;;;;;;8.36;100.00;100911.19;5005097;28;20068;-64
2022/04/27 03:59:35;;;;;;;7.63;4.40;;;;;;;8.30;100.00;100909.50;5029099;28;20058;-63
2022/04/27 04:02:03;;;;;;;4.80;4.25;;;;;;;8.25;100.00;100910.28;5012726;28;20046;-64
2022/04/27 04:04:32;;;;;;;10.10;5.03;;;;;;;8.24;100.00;100905.06;5029646;28;20046;-64
2022/04/27 04:07:01;;;;;;;7.03;4.47;;;;;;;8.22;100.00;100912.69;5012532;28;20058;-64
2022/04/27 04:09:37;;;;;;;6.47;4.20;;;;;;;8.14;100.00;100920.25;5029275;28;20404;-64
2022/04/27 04:12:06;;;;;;;5.72;4.60;;;;;;;8.14;100.00;100922.16;5014175;28;20053;-64
2022/04/27 04:14:59;;;;;;;8.60;4.60;;;;;;;8.12;100.00;100927.84;5013680;28;20049;-63
2022/04/27 04:17:46;;;;;;;5.50;4.15;;;;;;;8.19;100.00;100933.94;5029402;28;20400;-63
2022/04/27 04:20:33;;;;;;;5.55;4.22;;;;;;;8.20;100.00;100934.75;5014043;28;20045;-63
2022/04/27 04:23:19;;;;;;;7.25;4.18;;;;;;;8.12;100.00;100930.56;5012259;28;20061;-63
2022/04/27 04:28:42;;;;;;;7.90;4.13;;;;;;;8.12;100.00;100938.75;5004949;28;20053;-64
2022/04/27 04:31:10;;;;;;;5.88;4.10;;;;;;;8.11;100.00;100952.66;5029129;28;20050;-63
2022/04/27 04:34:01;;;;;;;6.20;4.00;;;;;;;8.17;100.00;100944.25;5011810;28;20076;-63
2022/04/27 04:36:30;;;;;;;6.30;4.10;;;;;;;8.46;100.00;100951.41;5012031;28;20054;-64
2022/04/27 04:38:59;;;;;;;7.28;4.85;;;;;;;8.54;100.00;100956.44;5012097;28;20096;-63
2022/04/27 04:41:30;;;;;;;4.35;3.30;;;;;;;8.59;100.00;100961.09;5027894;28;20057;-63
2022/04/27 04:43:59;;;;;;;4.43;3.22;;;;;;;8.63;100.00;100972.31;5028231;28;20408;-64
2022/04/27 04:46:29;;;;;;;6.10;4.03;;;;;;;8.61;100.00;100980.78;5003894;28;20041;-64
2022/04/27 04:49:24;;;;;;;3.90;3.50;;;;;;;8.50;100.00;100973.56;4997293;28;20041;-63
2022/04/27 04:52:02;;;;;;;4.53;4.03;;;;;;;8.38;100.00;100985.41;5011812;28;20524;-63
2022/04/27 04:54:43;;;;;;;4.30;3.30;;;;;;;8.26;100.00;100980.09;5028199;28;20060;-64
2022/04/27 04:57:25;;;;;;;4.95;3.30;;;;;;;8.28;100.00;100990.75;5028443;28;20053;-63
2022/04/27 05:00:08;;;;;;;5.45;3.58;;;;;;;8.43;100.00;100985.47;5028339;28;20054;-65
2022/04/27 05:02:36;;;;;;;6.65;3.75;;;;;;;8.73;100.00;100988.81;5012518;28;20050;-62
2022/04/27 05:05:23;;;;;;;7.57;4.18;;;;;;;8.67;100.00;100987.13;5012443;28;20467;-62
2022/04/27 05:08:01;;;;;;;8.05;3.75;;;;;;;8.62;100.00;100987.06;5012847;28;20053;-64
2022/04/27 05:10:58;;;;;;;4.78;3.78;;;;;;;8.78;100.00;100991.59;5003204;28;20066;-63
2022/04/27 05:13:38;;;;;;;6.88;3.40;;;;;;;9.20;100.00;100998.28;5008528;28;20046;-66
2022/04/27 05:16:38;;;;;;;5.63;3.75;;;;;;;9.58;100.00;100992.78;4984531;28;20049;-66
2022/04/27 05:19:31;;;;;;;6.00;3.30;;;;;;;9.92;100.00;101006.13;4992942;28;20068;-66
2022/04/27 05:22:18;;;;;;;3.85;3.15;;;;;;;10.12;100.00;100998.28;5011086;28;20053;-65
2022/04/27 05:25:11;;;;;;;3.38;3.08;;;;;;;10.16;100.00;100999.41;4986037;28;20053;-67
2022/04/27 05:27:57;;;;;;;3.10;2.78;;;;;;;10.24;100.00;101006.25;5011876;28;20579;-66
2022/04/27 05:33:43;;;;;;;4.80;2.80;;;;;;;10.57;100.00;101016.00;5026029;28;20061;-67
2022/04/27 05:36:32;;;;;;;3.70;2.65;;;;;;;10.65;99.93;101014.66;5011836;28;20054;-66
2022/04/27 05:39:21;;;;;;;3.63;2.60;;;;;;;10.59;98.50;101019.28;5011731;28;20050;-66
2022/04/27 05:42:15;;;;;;;2.47;2.22;;;;;;;10.84;98.37;101020.44;5004010;28;20054;-67
2022/04/27 05:45:15;;;;;;;2.80;2.60;;;;;;;11.21;97.13;101025.97;4989691;28;20519;-66
2022/04/27 05:48:12;;;;;;;4.57;2.33;;;;;;;11.45;96.36;101026.25;5000055;28;20068;-66
2022/04/27 05:50:45;;;;;;;3.42;2.88;;;;;;;11.58;95.72;101032.28;5027449;28;20050;-66
2022/04/27 05:53:34;;;;;;;3.97;2.75;;;;;;;11.46;96.01;101032.53;5012788;28;20041;-66
2022/04/27 05:56:09;;;;;;;3.75;2.85;;;;;;;11.41;95.94;101036.13;5010877;28;20396;-66
2022/04/27 05:58:55;;;;;;;3.63;2.97;;;;;;;11.48;96.00;101030.38;5012504;28;20056;-66
2022/04/27 06:01:46;;;;;;;3.38;2.70;;;;;;;11.53;95.64;101039.41;4992868;28;20049;-66
2022/04/27 06:04:22;;;;;;;7.40;3.10;;;;;;;11.58;96.06;101035.00;5010709;28;20054;-66
2022/04/27 06:06:50;;;;;;;3.78;3.38;;;;;;;11.61;96.09;101024.31;5027121;28;20048;-66
2022/04/27 06:09:20;;;;;;;4.22;2.95;;;;;;;11.54;93.93;101029.25;5027174;28;20054;-66
2022/04/27 06:12:07;;;;;;;4.22;3.22;;;;;;;11.62;95.15;101038.81;5010834;28;20058;-66
2022/04/27 06:14:44;;;;;;;4.78;3.30;;;;;;;11.86;94.21;101040.97;5011959;28;20053;-66
2022/04/27 06:17:38;;;;;;;6.97;3.40;;;;;;;12.11;93.07;101047.56;5011028;28;20417;-66
2022/04/27 06:20:07;;;;;;;4.13;3.38;;;;;;;12.27;91.62;101051.88;5011978;28;20092;-66
2022/04/27 06:22:35;;;;;;;6.07;3.83;;;;;;;12.43;92.87;101054.56;5026722;28;20465;-66
2022/04/27 06:25:04;;;;;;;8.00;3.80;;;;;;;12.34;93.90;101054.34;5010086;28;20421;-67
2022/04/27 06:27:48;;;;;;;4.63;3.75;;;;;;;12.49;93.16;101053.44;5010890;28;20034;-67
2022/04/27 06:30:16;;;;;;;4.80;3.72;;;;;;;12.59;92.71;101056.16;5027262;28;20118;-66
2022/04/27 06:32:46;;;;;;;4.53;3.60;;;;;;;12.68;92.20;101059.13;5010748;28;20037;-66
2022/04/27 06:35:14;;;;;;;6.85;3.50;;;;;;;12.72;93.23;101062.13;5026617;28;20069;-66
2022/04/27 06:37:46;;;;;;;3.95;3.30;;;;;;;12.79;91.76;101059.91;5027106;28;20038;-66
2022/04/27 06:40:14;;;;;;;7.00;3.80;;;;;;;12.95;92.70;101066.09;5010829;28;20046;-67
2022/04/27 06:42:43;;;;;;;7.80;4.10;;;;;;;13.03;91.48;101072.94;5026891;28;20042;-66
2022/04/27 06:45:47;;;;;;;5.80;4.13;;;;;;;13.16;90.47;101072.28;5009150;28;20061;-66
2022/04/27 06:48:33;;;;;;;11.90;5.35;;;;;;;13.23;90.46;101073.91;5010984;28;20308;-65
2022/04/27 06:51:20;;;;;;;8.95;5.07;;;;;;;13.36;89.00;101081.53;5011864;28;20045;-67
2022/04/27 06:54:06;;;;;;;8.95;5.65;;;;;;;13.35;87.93;101085.34;5011909;28;20728;-66
2022/04/27 06:56:52;;;;;;;11.05;5.68;;;;;;;13.40;88.75;101082.56;5011838;28;20077;-67
2022/04/27 06:59:37;;;;;;;10.70;5.93;;;;;;;13.60;87.73;101083.56;5009899;28;20468;-67
2022/04/27 07:02:10;;;;;;;9.75;5.47;;;;;;;13.66;88.09;101085.16;5026290;28;20050;-66
2022/04/27 07:04:41;;;;;;;11.38;4.97;;;;;;;13.87;86.39;101097.91;5011260;28;20057;-66
2022/04/27 07:07:12;;;;;;;9.23;5.68;;;;;;;13.95;85.40;101086.25;5011860;28;20849;-67
2022/04/27 07:09:40;;;;;;;11.65;4.90;;;;;;;14.03;87.02;101087.56;4998150;28;20050;-67
2022/04/27 07:12:08;;;;;;;10.20;5.45;;;;;;;14.11;85.30;101087.75;5011208;28;20073;-67
2022/04/27 07:14:36;;;;;;;7.95;4.97;;;;;;;14.27;84.59;101092.25;5011168;28;20456;-67
2022/04/27 07:17:04;;;;;;;11.85;6.03;;;;;;;14.33;84.96;101085.59;5011932;28;20046;-66
2022/04/27 07:19:32;;;;;;;9.77;5.25;;;;;;;14.44;83.83;101081.59;5011614;28;20504;-67
2022/04/27 07:22:02;;;;;;;8.73;5.30;;;;;;;14.49;82.88;101098.06;5011666;28;20046;-67
2022/04/27 07:24:30;;;;;;;10.05;5.30;;;;;;;14.49;82.27;101098.06;5026746;28;20046;-67
2022/04/27 07:26:58;;;;;;;8.95;5.55;;;;;;;14.52;82.49;101100.22;5005081;28;20050;-67
2022/04/27 07:29:26;;;;;;;7.90;4.63;;;;;;;14.61;81.89;101102.31;5013828;28;20042;-69
2022/04/27 07:31:55;;;;;;;8.52;5.47;;;;;;;14.55;81.10;101093.31;4997655;28;20065;-69
2022/04/27 07:34:23;;;;;;;5.97;4.80;;;;;;;14.67;80.11;101100.31;4982273;28;20057;-69
2022/04/27 07:36:52;;;;;;;6.10;4.68;;;;;;;14.73;80.24;101099.97;4997650;28;20408;-68
2022/04/27 07:39:20;;;;;;;10.35;5.30;;;;;;;14.68;78.95;101113.81;4997527;28;20052;-69
2022/04/27 07:41:48;;;;;;;6.13;4.80;;;;;;;14.59;78.37;101107.31;5013758;28;20054;-69
2022/04/27 07:44:16;;;;;;;7.57;4.88;;;;;;;14.57;78.10;101117.81;4997547;28;20049;-69
2022/04/27 07:46:47;;;;;;;6.85;4.88;;;;;;;14.52;78.43;101111.22;4997610;28;20396;-69
2022/04/27 07:49:16;;;;;;;6.03;3.78;;;;;;;14.47;77.46;101116.81;4997413;28;20046;-69
2022/04/27 07:51:49;;;;;;;5.03;4.03;;;;;;;14.43;77.87;101129.53;5013778;28;20053;-70
2022/04/27 07:54:17;;;;;;;5.78;3.97;;;;;;;14.49;78.10;101130.28;5013614;28;20053;-69
2022/04/27 07:56:45;;;;;;;6.35;3.80;;;;;;;14.51;78.56;101126.13;5013609;28;20072;-66
2022/04/27 07:59:14;;;;;;;6.38;4.45;;;;;;;14.47;78.01;101124.25;5013559;28;20045;-66
2022/04/27 08:01:42;;;;;;;4.88;3.53;;;;;;;14.45;79.59;101126.47;4997541;28;20046;-67
2022/04/27 08:04:10;;;;;;;4.35;3.50;;;;;;;14.40;76.68;101127.34;5013462;28;20057;-66
2022/04/27 08:06:38;;;;;;;4.95;3.53;;;;;;;14.47;77.29;101125.06;4997056;28;20041;-66
2022/04/27 08:09:07;;;;;;;5.13;3.53;;;;;;;14.73;76.19;101121.19;4997215;28;20053;-66
2022/04/27 08:11:35;;;;;;;4.38;3.72;;;;;;;14.84;76.49;101119.97;5012954;28;20053;-65
2022/04/27 08:14:03;;;;;;;4.38;3.38;;;;;;;14.93;76.18;101119.28;5029139;28;20057;-70
2022/04/27 08:16:31;;;;;;;6.40;3.67;;;;;;;14.98;74.42;101122.81;5029492;28;20408;-70
2022/04/27 08:18:59;;;;;;;7.85;4.10;;;;;;;15.18;74.89;101135.50;5014312;28;20053;-71
2022/04/27 08:21:27;;;;;;;3.75;2.72;;;;;;;15.26;72.32;101120.19;5013855;28;20046;-70
2022/04/27 08:23:55;;;;;;;2.45;2.15;;;;;;;15.27;72.13;101135.66;5014308;28;20041;-70
2022/04/27 08:26:23;;;;;;;4.35;2.47;;;;;;;15.39;69.92;101142.66;5013790;28;20065;-71
2022/04/27 08:28:51;;;;;;;3.55;1.95;;;;;;;15.45;70.89;101141.47;5013917;28;20045;-70
2022/04/27 08:31:20;;;;;;;2.47;2.28;;;;;;;15.43;71.70;101138.16;5013962;28;20057;-68
2022/04/27 08:33:48;;;;;;;3.90;3.10;;;;;;;15.52;70.84;101138.31;5013644;28;20057;-70
2022/04/27 08:36:16;;;;;;;2.60;2.28;;;;;;;15.74;71.83;101142.38;5013868;28;20050;-71
2022/04/27 08:39:02;;;;;;;4.07;3.20;;;;;;;15.85;69.04;101144.66;5013829;28;20401;-71
2022/04/27 08:41:30;;;;;;;2.97;2.60;;;;;;;15.89;69.02;101160.63;5013505;28;20042;-71
2022/04/27 08:43:58;;;;;;;2.75;2.38;;;;;;;15.84;69.25;101147.72;5013835;28;20054;-71
2022/04/27 08:46:28;;;;;;;2.67;2.20;;;;;;;16.02;69.28;101151.56;5013393;28;20507;-71
2022/04/27 08:48:56;;;;;;;3.47;2.53;;;;;;;15.99;69.32;101153.00;5013532;28;20042;-71
2022/04/27 08:51:28;;;;;;;2.15;1.92;;;;;;;15.96;69.35;101156.38;5013342;28;20042;-71
2022/04/27 08:53:56;;;;;;;2.25;1.95;;;;;;;15.95;67.36;101146.47;5013694;28;20046;-71
2022/04/27 08:56:25;;;;;;;2.97;1.80;;;;;;;15.99;68.85;101144.72;5013417;28;20042;-71
2022/04/27 08:58:52;;;;;;;2.47;2.28;;;;;;;16.13;66.76;101143.91;5013627;28;20037;-71
2022/04/27 09:01:20;;;;;;;1.92;1.70;;;;;;;16.08;68.69;101158.66;5012081;28;20050;-71
2022/04/27 09:03:48;;;;;;;1.77;1.67;;;;;;;16.32;65.58;101151.34;5013554;28;20050;-71
2022/04/27 09:06:18;;;;;;;2.58;2.20;;;;;;;16.26;66.17;101150.59;5012068;28;20064;-71
2022/04/27 09:08:55;;;;;;;4.13;2.40;;;;;;;16.22;67.12;101155.09;5013422;28;20042;-71
2022/04/27 09:11:32;;;;;;;3.33;2.55;;;;;;;16.32;67.83;101160.44;5013553;28;20050;-72
2022/04/27 09:14:06;;;;;;;2.85;2.47;;;;;;;16.35;68.14;101157.06;5000834;28;20052;-72
2022/04/27 09:22:14;;;;;;;4.93;3.20;;;;;;;16.20;67.84;101155.41;4993751;28;20057;-66
2022/04/27 09:24:54;;;;;;;7.18;3.63;;;;;;;16.42;68.94;101156.66;5013229;28;20484;-66
2022/04/27 09:27:24;;;;;;;3.83;3.38;;;;;;;16.47;67.98;101153.78;5012613;28;20058;-66
2022/04/27 09:30:01;;;;;;;4.07;3.38;;;;;;;16.50;66.56;101157.88;5012861;28;20075;-66
2022/04/27 09:32:30;;;;;;;4.68;3.33;;;;;;;16.71;66.97;101160.25;5012842;28;20513;-66
2022/04/27 09:35:02;;;;;;;3.60;3.30;;;;;;;16.88;64.40;101154.91;5012783;28;20050;-66
2022/04/27 09:37:38;;;;;;;4.80;3.67;;;;;;;17.04;67.32;101160.97;5012616;28;20057;-66
2022/04/27 09:40:13;;;;;;;5.47;3.25;;;;;;;17.02;68.02;101154.06;5012716;28;20046;-66
2022/04/27 09:42:45;;;;;;;4.18;3.60;;;;;;;17.17;66.11;101152.94;5012414;28;20046;-66
2022/04/27 09:45:18;;;;;;;5.78;3.60;;;;;;;17.32;65.68;101157.31;5012549;28;20058;-66
2022/04/27 09:47:50;;;;;;;4.75;3.55;;;;;;;17.41;64.94;101160.16;5012541;28;20500;-66
2022/04/27 09:50:19;;;;;;;4.13;3.58;;;;;;;17.42;65.58;101159.84;5012153;28;20065;-66
2022/04/27 09:52:47;;;;;;;4.45;3.80;;;;;;;17.30;64.69;101162.34;5012410;28;20046;-66
2022/04/27 09:55:15;;;;;;;4.63;4.22;;;;;;;17.50;66.01;101155.50;5012381;28;20049;-66
2022/04/27 09:57:57;;;;;;;5.47;4.00;;;;;;;17.34;63.91;101155.03;5012232;28;20615;-66
2022/04/27 10:00:26;;;;;;;6.20;3.75;;;;;;;17.35;63.79;101161.41;5012429;28;20057;-66
2022/04/27 10:02:57;;;;;;;4.75;4.07;;;;;;;17.30;63.05;101165.13;5012256;28;20061;-66
2022/04/27 10:05:27;;;;;;;5.38;3.80;;;;;;;17.41;64.46;101158.19;5012357;28;20508;-66
2022/04/27 10:07:56;;;;;;;5.05;3.63;;;;;;;17.25;61.51;101154.97;5012130;28;20492;-66
2022/04/27 10:10:24;;;;;;;5.40;3.95;;;;;;;17.16;64.40;101141.06;5012339;28;20499;-66
2022/04/27 10:12:53;;;;;;;4.22;3.45;;;;;;;17.30;63.59;101149.31;5012034;28;20057;-66
2022/04/27 10:15:22;;;;;;;4.82;3.63;;;;;;;17.76;64.58;101152.13;5011968;28;20710;-66
2022/04/27 10:17:50;;;;;;;5.15;3.58;;;;;;;18.05;62.85;101152.78;5011834;28;20489;-66
2022/04/27 10:20:27;;;;;;;4.53;3.33;;;;;;;18.10;59.84;101155.44;5010895;28;20046;-65
2022/04/27 10:23:22;;;;;;;4.97;3.30;;;;;;;18.25;62.68;101165.31;5012187;28;20481;-66
2022/04/27 10:26:29;;;;;;;3.60;3.00;;;;;;;17.92;60.20;101154.47;5010076;28;20495;-65
2022/04/27 10:29:00;;;;;;;4.20;3.30;;;;;;;17.68;63.08;101150.94;5007081;28;20046;-65
2022/04/27 10:31:48;;;;;;;5.35;3.42;;;;;;;17.78;64.25;101149.84;5011731;28;20045;-66
2022/04/27 10:34:21;;;;;;;4.53;3.33;;;;;;;17.89;63.29;101144.84;5005264;28;20050;-66
2022/04/27 10:36:54;;;;;;;3.55;2.80;;;;;;;18.05;63.39;101147.25;5012122;28;20049;-66
2022/04/27 10:39:27;;;;;;;3.22;2.92;;;;;;;18.29;63.66;101146.09;5008833;28;20046;-66
2022/04/27 10:42:22;;;;;;;4.25;2.95;;;;;;;18.56;60.18;101152.56;5003722;28;20046;-66
2022/04/27 10:44:58;;;;;;;5.20;3.42;;;;;;;18.60;60.90;101145.22;5004889;28;20050;-66
2022/04/27 10:47:34;;;;;;;3.65;3.05;;;;;;;18.71;60.72;101146.56;5011471;28;20046;-66
2022/04/27 10:50:13;;;;;;;4.28;3.17;;;;;;;18.47;57.71;101141.44;5012049;28;20046;-66
2022/04/27 10:52:52;;;;;;;4.15;3.40;;;;;;;18.61;60.96;101146.84;5012074;28;20034;-66
2022/04/27 10:55:35;;;;;;;3.92;2.80;;;;;;;18.62;60.36;101145.75;5010562;28;20053;-65
2022/04/27 10:58:15;;;;;;;3.88;3.03;;;;;;;18.69;61.82;101143.31;5009406;28;20377;-66
2022/04/27 11:00:58;;;;;;;3.03;2.60;;;;;;;18.75;58.87;101146.75;5008871;28;20052;-66
2022/04/27 11:03:29;;;;;;;4.40;3.10;;;;;;;18.74;59.66;101145.09;5014884;28;20052;-65
2022/04/27 11:06:03;;;;;;;4.18;3.05;;;;;;;18.93;60.21;101133.75;5012194;28;20046;-65
2022/04/27 11:08:49;;;;;;;3.25;2.90;;;;;;;19.15;59.79;101138.38;5014345;28;20392;-66
2022/04/27 11:11:18;;;;;;;4.50;3.25;;;;;;;19.19;57.71;101144.91;5013597;28;20062;-66
2022/04/27 11:13:47;;;;;;;4.43;3.45;;;;;;;18.94;55.54;101149.25;5014578;28;20044;-64
2022/04/27 11:16:16;;;;;;;3.67;3.20;;;;;;;19.16;57.79;101140.00;5014014;28;20053;-66
2022/04/27 11:18:58;;;;;;;3.58;2.85;;;;;;;19.17;58.91;101140.81;5013359;28;20046;-65
2022/04/27 11:21:30;;;;;;;5.13;3.42;;;;;;;19.12;56.43;101149.28;5011828;28;20054;-65
2022/04/27 11:23:58;;;;;;;4.22;3.33;;;;;;;19.03;55.84;101136.25;5012311;28;20046;-66
2022/04/27 11:26:26;;;;;;;2.72;2.45;;;;;;;19.12;56.00;101138.19;5013837;28;20042;-65
2022/04/27 11:28:57;;;;;;;3.72;3.00;;;;;;;19.21;59.86;101147.31;5013694;28;20057;-66
2022/04/27 11:31:27;;;;;;;5.78;3.05;;;;;;;19.36;56.62;101136.91;5013386;28;20057;-66
2022/04/27 11:33:55;;;;;;;4.13;3.28;;;;;;;19.51;57.86;101141.97;5012084;28;20054;-66
2022/04/27 11:36:26;;;;;;;2.78;2.40;;;;;;;19.59;57.12;101141.13;5014336;28;20524;-66
2022/04/27 11:38:56;;;;;;;2.80;2.60;;;;;;;19.51;57.21;101130.03;5013438;28;20042;-66
2022/04/27 11:41:25;;;;;;;4.82;3.38;;;;;;;19.57;55.71;101132.34;5013317;28;20057;-66
2022/04/27 11:43:54;;;;;;;3.58;3.28;;;;;;;19.69;56.82;101142.75;5013268;28;20042;-65
2022/04/27 11:46:22;;;;;;;3.83;3.15;;;;;;;19.92;58.24;101139.78;5013565;28;20496;-66
2022/04/27 11:48:51;;;;;;;3.85;3.20;;;;;;;20.05;56.82;101140.75;5014167;28;20042;-65
2022/04/27 11:51:19;;;;;;;3.15;2.55;;;;;;;20.20;54.61;101135.81;5014072;28;20052;-66
2022/04/27 11:53:49;;;;;;;2.65;2.42;;;;;;;20.08;53.36;101131.75;5013712;28;20516;-65
2022/04/27 11:56:18;;;;;;;3.30;2.78;;;;;;;20.34;55.60;101135.59;5013015;28;20053;-66
2022/04/27 11:58:47;;;;;;;3.20;2.42;;;;;;;20.18;52.07;101136.13;5013557;28;20048;-66
2022/04/27 12:01:22;;;;;;;2.78;2.30;;;;;;;20.21;52.50;101138.25;5013480;28;20053;-66
2022/04/27 12:03:51;;;;;;;2.45;2.25;;;;;;;20.34;54.93;101133.59;5011012;28;20046;-66
2022/04/27 12:06:21;;;;;;;2.78;2.55;;;;;;;20.27;54.06;101125.81;5009616;28;20524;-66